sensor_id;sensor_type;location;lat;lon;timestamp;P1;durP1;ratioP1;P2;durP2;ratioP2
9559;SDS011;4818;50.860;4.648;2022-09-01T00:00:36;3.45;;;1.40;;
9559;SDS011;4818;50.860;4.648;2022-09-01T00:03:03;1.90;;;0.73;;
9559;SDS011;4818;50.860;4.648;2022-09-01T00:05:29;5.28;;;1.45;;
9559;SDS011;4818;50.860;4.648;2022-09-01T00:07:57;4.55;;;1.38;;
9559;SDS011;4818;50.860;4.648;2022-09-01T00:10:23;4.78;;;1.52;;
9559;SDS011;4818;50.860;4.648;2022-09-01T00:12:50;5.63;;;1.60;;
9559;SDS011;4818;50.860;4.648;2022-09-01T00:15:16;2.53;;;0.85;;
9559;SDS011;4818;50.860;4.648;2022-09-01T00:17:42;4.30;;;1.38;;
9559;SDS011;4818;50.860;4.648;2022-09-01T00:20:09;3.92;;;1.60;;
9559;SDS011;4818;50.860;4.648;2022-09-01T00:22:36;4.25;;;1.30;;
9559;SDS011;4818;50.860;4.648;2022-09-01T00:25:02;2.95;;;1.25;;
9559;SDS011;4818;50.860;4.648;2022-09-01T00:27:30;3.47;;;1.60;;
9559;SDS011;4818;50.860;4.648;2022-09-01T00:29:57;5.57;;;1.90;;
9559;SDS011;4818;50.860;4.648;2022-09-01T00:32:23;3.20;;;1.15;;
9559;SDS011;4818;50.860;4.648;2022-09-01T00:34:49;3.85;;;1.42;;
9559;SDS011;4818;50.860;4.648;2022-09-01T00:37:15;3.13;;;1.38;;
9559;SDS011;4818;50.860;4.648;2022-09-01T00:39:41;3.63;;;1.02;;
9559;SDS011;4818;50.860;4.648;2022-09-01T00:42:08;4.28;;;1.30;;
9559;SDS011;4818;50.860;4.648;2022-09-01T00:44:35;3.92;;;1.60;;
9559;SDS011;4818;50.860;4.648;2022-09-01T00:47:03;6.75;;;1.30;;
9559;SDS011;4818;50.860;4.648;2022-09-01T00:49:35;6.25;;;1.52;;
9559;SDS011;4818;50.860;4.648;2022-09-01T00:52:06;5.95;;;1.52;;
9559;SDS011;4818;50.860;4.648;2022-09-01T00:54:35;7.00;;;1.58;;
9559;SDS011;4818;50.860;4.648;2022-09-01T00:57:04;3.88;;;1.48;;
9559;SDS011;4818;50.860;4.648;2022-09-01T00:59:30;4.18;;;1.50;;
9559;SDS011;4818;50.860;4.648;2022-09-01T01:01:57;3.38;;;1.17;;
9559;SDS011;4818;50.860;4.648;2022-09-01T01:04:24;6.03;;;1.77;;
9559;SDS011;4818;50.860;4.648;2022-09-01T01:06:52;6.43;;;1.92;;
9559;SDS011;4818;50.860;4.648;2022-09-01T01:09:26;2.92;;;1.40;;
9559;SDS011;4818;50.860;4.648;2022-09-01T01:11:53;3.30;;;1.48;;
9559;SDS011;4818;50.860;4.648;2022-09-01T01:14:24;3.40;;;1.50;;
9559;SDS011;4818;50.860;4.648;2022-09-01T01:16:56;4.35;;;2.00;;
9559;SDS011;4818;50.860;4.648;2022-09-01T01:22:09;5.93;;;2.60;;
9559;SDS011;4818;50.860;4.648;2022-09-01T01:25:06;7.10;;;1.92;;
9559;SDS011;4818;50.860;4.648;2022-09-01T01:27:33;7.25;;;2.10;;
9559;SDS011;4818;50.860;4.648;2022-09-01T01:30:00;4.35;;;2.00;;
9559;SDS011;4818;50.860;4.648;2022-09-01T01:32:27;5.15;;;2.22;;
9559;SDS011;4818;50.860;4.648;2022-09-01T01:34:53;8.70;;;3.45;;
9559;SDS011;4818;50.860;4.648;2022-09-01T01:37:20;5.75;;;2.30;;
9559;SDS011;4818;50.860;4.648;2022-09-01T01:39:49;10.30;;;3.13;;
9559;SDS011;4818;50.860;4.648;2022-09-01T01:42:15;7.55;;;2.88;;
9559;SDS011;4818;50.860;4.648;2022-09-01T01:44:42;8.45;;;2.97;;
9559;SDS011;4818;50.860;4.648;2022-09-01T01:47:10;8.15;;;4.00;;
9559;SDS011;4818;50.860;4.648;2022-09-01T01:49:38;8.25;;;3.47;;
9559;SDS011;4818;50.860;4.648;2022-09-01T01:52:08;7.70;;;3.45;;
9559;SDS011;4818;50.860;4.648;2022-09-01T01:54:34;6.97;;;3.42;;
9559;SDS011;4818;50.860;4.648;2022-09-01T01:57:01;9.05;;;4.05;;
9559;SDS011;4818;50.860;4.648;2022-09-01T01:59:32;10.95;;;3.40;;
9559;SDS011;4818;50.860;4.648;2022-09-01T02:01:58;8.73;;;3.60;;
9559;SDS011;4818;50.860;4.648;2022-09-01T02:04:27;6.77;;;3.37;;
9559;SDS011;4818;50.860;4.648;2022-09-01T02:06:58;5.45;;;3.08;;
9559;SDS011;4818;50.860;4.648;2022-09-01T02:09:24;10.75;;;3.83;;
9559;SDS011;4818;50.860;4.648;2022-09-01T02:11:50;7.22;;;3.35;;
9559;SDS011;4818;50.860;4.648;2022-09-01T02:16:46;6.50;;;3.67;;
9559;SDS011;4818;50.860;4.648;2022-09-01T02:19:13;10.93;;;3.67;;
9559;SDS011;4818;50.860;4.648;2022-09-01T02:21:39;10.75;;;3.97;;
9559;SDS011;4818;50.860;4.648;2022-09-01T02:24:08;10.27;;;3.35;;
9559;SDS011;4818;50.860;4.648;2022-09-01T02:26:40;10.38;;;3.35;;
9559;SDS011;4818;50.860;4.648;2022-09-01T02:29:08;7.95;;;2.80;;
9559;SDS011;4818;50.860;4.648;2022-09-01T02:31:42;5.70;;;3.03;;
9559;SDS011;4818;50.860;4.648;2022-09-01T02:34:08;6.35;;;2.92;;
9559;SDS011;4818;50.860;4.648;2022-09-01T02:36:36;7.55;;;3.17;;
9559;SDS011;4818;50.860;4.648;2022-09-01T02:39:06;9.77;;;3.58;;
9559;SDS011;4818;50.860;4.648;2022-09-01T02:41:32;8.75;;;3.13;;
9559;SDS011;4818;50.860;4.648;2022-09-01T02:43:58;8.68;;;3.38;;
9559;SDS011;4818;50.860;4.648;2022-09-01T02:46:26;9.10;;;4.28;;
9559;SDS011;4818;50.860;4.648;2022-09-01T02:48:53;7.82;;;3.47;;
9559;SDS011;4818;50.860;4.648;2022-09-01T02:51:21;8.35;;;3.78;;
9559;SDS011;4818;50.860;4.648;2022-09-01T02:53:49;10.80;;;4.20;;
9559;SDS011;4818;50.860;4.648;2022-09-01T02:56:17;10.18;;;3.97;;
9559;SDS011;4818;50.860;4.648;2022-09-01T02:58:44;9.82;;;4.07;;
9559;SDS011;4818;50.860;4.648;2022-09-01T03:01:19;21.10;;;4.55;;
9559;SDS011;4818;50.860;4.648;2022-09-01T03:03:53;8.18;;;4.00;;
9559;SDS011;4818;50.860;4.648;2022-09-01T03:06:20;7.75;;;3.65;;
9559;SDS011;4818;50.860;4.648;2022-09-01T03:08:48;7.05;;;3.33;;
9559;SDS011;4818;50.860;4.648;2022-09-01T03:11:15;8.57;;;3.67;;
9559;SDS011;4818;50.860;4.648;2022-09-01T03:13:41;17.15;;;4.93;;
9559;SDS011;4818;50.860;4.648;2022-09-01T03:16:08;10.43;;;4.28;;
9559;SDS011;4818;50.860;4.648;2022-09-01T03:18:34;8.98;;;3.67;;
9559;SDS011;4818;50.860;4.648;2022-09-01T03:21:01;6.03;;;3.15;;
9559;SDS011;4818;50.860;4.648;2022-09-01T03:23:27;9.40;;;3.90;;
9559;SDS011;4818;50.860;4.648;2022-09-01T03:25:53;13.27;;;4.03;;
9559;SDS011;4818;50.860;4.648;2022-09-01T03:28:20;8.63;;;3.45;;
9559;SDS011;4818;50.860;4.648;2022-09-01T03:30:48;10.70;;;3.72;;
9559;SDS011;4818;50.860;4.648;2022-09-01T03:33:15;13.20;;;4.10;;
9559;SDS011;4818;50.860;4.648;2022-09-01T03:35:42;7.47;;;3.75;;
9559;SDS011;4818;50.860;4.648;2022-09-01T03:38:09;5.28;;;2.88;;
9559;SDS011;4818;50.860;4.648;2022-09-01T03:40:37;7.57;;;3.15;;
9559;SDS011;4818;50.860;4.648;2022-09-01T03:43:04;8.02;;;2.53;;
9559;SDS011;4818;50.860;4.648;2022-09-01T03:45:31;6.43;;;2.80;;
9559;SDS011;4818;50.860;4.648;2022-09-01T03:48:03;7.68;;;3.60;;
9559;SDS011;4818;50.860;4.648;2022-09-01T03:50:34;10.65;;;4.00;;
9559;SDS011;4818;50.860;4.648;2022-09-01T03:53:02;7.78;;;3.20;;
9559;SDS011;4818;50.860;4.648;2022-09-01T03:55:29;7.03;;;3.50;;
9559;SDS011;4818;50.860;4.648;2022-09-01T03:58:00;7.72;;;3.08;;
9559;SDS011;4818;50.860;4.648;2022-09-01T04:00:31;8.02;;;2.85;;
9559;SDS011;4818;50.860;4.648;2022-09-01T04:03:00;14.30;;;4.57;;
9559;SDS011;4818;50.860;4.648;2022-09-01T04:05:27;6.95;;;3.78;;
9559;SDS011;4818;50.860;4.648;2022-09-01T04:07:55;8.75;;;3.88;;
9559;SDS011;4818;50.860;4.648;2022-09-01T04:10:22;7.30;;;3.38;;
9559;SDS011;4818;50.860;4.648;2022-09-01T04:12:49;7.07;;;3.63;;
9559;SDS011;4818;50.860;4.648;2022-09-01T04:15:16;7.93;;;3.63;;
9559;SDS011;4818;50.860;4.648;2022-09-01T04:17:43;4.72;;;2.83;;
9559;SDS011;4818;50.860;4.648;2022-09-01T04:20:28;9.88;;;3.25;;
9559;SDS011;4818;50.860;4.648;2022-09-01T04:23:04;8.18;;;2.88;;
9559;SDS011;4818;50.860;4.648;2022-09-01T04:25:35;7.25;;;3.05;;
9559;SDS011;4818;50.860;4.648;2022-09-01T04:28:03;6.93;;;3.30;;
9559;SDS011;4818;50.860;4.648;2022-09-01T04:30:40;4.25;;;2.40;;
9559;SDS011;4818;50.860;4.648;2022-09-01T04:33:06;6.85;;;3.05;;
9559;SDS011;4818;50.860;4.648;2022-09-01T04:35:39;7.72;;;3.13;;
9559;SDS011;4818;50.860;4.648;2022-09-01T04:38:05;8.55;;;3.40;;
9559;SDS011;4818;50.860;4.648;2022-09-01T04:40:36;7.97;;;3.50;;
9559;SDS011;4818;50.860;4.648;2022-09-01T04:43:03;6.10;;;2.30;;
9559;SDS011;4818;50.860;4.648;2022-09-01T04:45:29;6.38;;;2.63;;
9559;SDS011;4818;50.860;4.648;2022-09-01T04:47:55;5.95;;;2.10;;
9559;SDS011;4818;50.860;4.648;2022-09-01T04:50:24;9.87;;;3.13;;
9559;SDS011;4818;50.860;4.648;2022-09-01T04:52:58;6.47;;;2.70;;
9559;SDS011;4818;50.860;4.648;2022-09-01T04:55:25;6.18;;;3.03;;
9559;SDS011;4818;50.860;4.648;2022-09-01T04:57:54;4.97;;;2.42;;
9559;SDS011;4818;50.860;4.648;2022-09-01T05:00:22;6.78;;;2.03;;
9559;SDS011;4818;50.860;4.648;2022-09-01T05:02:52;5.57;;;2.40;;
9559;SDS011;4818;50.860;4.648;2022-09-01T05:05:20;6.63;;;2.05;;
9559;SDS011;4818;50.860;4.648;2022-09-01T05:07:47;4.70;;;2.40;;
9559;SDS011;4818;50.860;4.648;2022-09-01T05:12:42;6.60;;;2.63;;
9559;SDS011;4818;50.860;4.648;2022-09-01T05:15:10;11.70;;;2.10;;
9559;SDS011;4818;50.860;4.648;2022-09-01T05:17:37;6.90;;;2.15;;
9559;SDS011;4818;50.860;4.648;2022-09-01T05:20:04;7.18;;;2.50;;
9559;SDS011;4818;50.860;4.648;2022-09-01T05:22:31;5.53;;;1.92;;
9559;SDS011;4818;50.860;4.648;2022-09-01T05:24:58;6.38;;;2.65;;
9559;SDS011;4818;50.860;4.648;2022-09-01T05:27:36;4.65;;;2.05;;
9559;SDS011;4818;50.860;4.648;2022-09-01T05:30:04;5.95;;;2.15;;
9559;SDS011;4818;50.860;4.648;2022-09-01T05:32:35;5.70;;;2.65;;
9559;SDS011;4818;50.860;4.648;2022-09-01T05:35:03;7.72;;;1.88;;
9559;SDS011;4818;50.860;4.648;2022-09-01T05:37:34;8.63;;;2.53;;
9559;SDS011;4818;50.860;4.648;2022-09-01T05:40:03;6.03;;;2.33;;
9559;SDS011;4818;50.860;4.648;2022-09-01T05:42:29;8.25;;;2.38;;
9559;SDS011;4818;50.860;4.648;2022-09-01T05:44:56;3.88;;;1.80;;
9559;SDS011;4818;50.860;4.648;2022-09-01T05:47:22;6.40;;;2.35;;
9559;SDS011;4818;50.860;4.648;2022-09-01T05:49:50;6.03;;;2.97;;
9559;SDS011;4818;50.860;4.648;2022-09-01T05:52:18;4.50;;;2.00;;
9559;SDS011;4818;50.860;4.648;2022-09-01T05:54:49;7.82;;;2.97;;
9559;SDS011;4818;50.860;4.648;2022-09-01T05:57:16;5.53;;;2.40;;
9559;SDS011;4818;50.860;4.648;2022-09-01T05:59:43;7.13;;;2.47;;
9559;SDS011;4818;50.860;4.648;2022-09-01T06:02:11;5.72;;;2.25;;
9559;SDS011;4818;50.860;4.648;2022-09-01T06:04:37;4.05;;;2.05;;
9559;SDS011;4818;50.860;4.648;2022-09-01T06:07:10;7.10;;;2.22;;
9559;SDS011;4818;50.860;4.648;2022-09-01T06:09:39;5.10;;;2.20;;
9559;SDS011;4818;50.860;4.648;2022-09-01T06:12:05;5.63;;;2.15;;
9559;SDS011;4818;50.860;4.648;2022-09-01T06:14:41;4.18;;;1.80;;
9559;SDS011;4818;50.860;4.648;2022-09-01T06:17:08;4.47;;;1.63;;
9559;SDS011;4818;50.860;4.648;2022-09-01T06:19:36;6.18;;;1.92;;
9559;SDS011;4818;50.860;4.648;2022-09-01T06:22:04;5.25;;;1.40;;
9559;SDS011;4818;50.860;4.648;2022-09-01T06:24:30;5.05;;;1.13;;
9559;SDS011;4818;50.860;4.648;2022-09-01T06:26:56;2.47;;;0.90;;
9559;SDS011;4818;50.860;4.648;2022-09-01T06:29:23;5.25;;;1.25;;
9559;SDS011;4818;50.860;4.648;2022-09-01T06:31:49;2.00;;;1.08;;
9559;SDS011;4818;50.860;4.648;2022-09-01T06:34:17;6.40;;;1.52;;
9559;SDS011;4818;50.860;4.648;2022-09-01T06:36:44;3.13;;;0.85;;
9559;SDS011;4818;50.860;4.648;2022-09-01T06:39:12;4.90;;;1.42;;
9559;SDS011;4818;50.860;4.648;2022-09-01T06:41:47;3.67;;;0.98;;
9559;SDS011;4818;50.860;4.648;2022-09-01T06:44:13;4.38;;;1.00;;
9559;SDS011;4818;50.860;4.648;2022-09-01T06:46:47;2.95;;;1.10;;
9559;SDS011;4818;50.860;4.648;2022-09-01T06:49:13;4.40;;;1.20;;
9559;SDS011;4818;50.860;4.648;2022-09-01T06:51:40;9.23;;;1.67;;
9559;SDS011;4818;50.860;4.648;2022-09-01T06:54:06;3.78;;;0.80;;
9559;SDS011;4818;50.860;4.648;2022-09-01T06:56:33;2.40;;;0.98;;
9559;SDS011;4818;50.860;4.648;2022-09-01T06:59:00;3.47;;;1.33;;
9559;SDS011;4818;50.860;4.648;2022-09-01T07:01:30;2.78;;;0.80;;
9559;SDS011;4818;50.860;4.648;2022-09-01T07:03:56;7.40;;;1.20;;
9559;SDS011;4818;50.860;4.648;2022-09-01T07:06:23;2.95;;;0.95;;
9559;SDS011;4818;50.860;4.648;2022-09-01T07:08:55;4.40;;;1.25;;
9559;SDS011;4818;50.860;4.648;2022-09-01T07:11:30;4.35;;;0.80;;
9559;SDS011;4818;50.860;4.648;2022-09-01T07:13:58;3.83;;;1.20;;
9559;SDS011;4818;50.860;4.648;2022-09-01T07:16:26;3.40;;;1.23;;
9559;SDS011;4818;50.860;4.648;2022-09-01T07:18:54;6.35;;;1.10;;
9559;SDS011;4818;50.860;4.648;2022-09-01T07:21:21;6.40;;;1.40;;
9559;SDS011;4818;50.860;4.648;2022-09-01T07:23:48;8.73;;;1.33;;
9559;SDS011;4818;50.860;4.648;2022-09-01T07:26:15;4.05;;;0.90;;
9559;SDS011;4818;50.860;4.648;2022-09-01T07:28:48;2.45;;;0.90;;
9559;SDS011;4818;50.860;4.648;2022-09-01T07:31:28;6.63;;;0.98;;
9559;SDS011;4818;50.860;4.648;2022-09-01T07:33:57;4.30;;;1.25;;
9559;SDS011;4818;50.860;4.648;2022-09-01T07:36:23;4.25;;;0.93;;
9559;SDS011;4818;50.860;4.648;2022-09-01T07:38:50;4.97;;;1.13;;
9559;SDS011;4818;50.860;4.648;2022-09-01T07:41:22;2.55;;;1.30;;
9559;SDS011;4818;50.860;4.648;2022-09-01T07:43:49;3.97;;;1.02;;
9559;SDS011;4818;50.860;4.648;2022-09-01T07:46:18;2.47;;;1.00;;
9559;SDS011;4818;50.860;4.648;2022-09-01T07:48:44;1.48;;;0.80;;
9559;SDS011;4818;50.860;4.648;2022-09-01T07:51:13;4.37;;;0.70;;
9559;SDS011;4818;50.860;4.648;2022-09-01T07:53:43;2.88;;;0.63;;
9559;SDS011;4818;50.860;4.648;2022-09-01T07:56:09;1.27;;;0.52;;
9559;SDS011;4818;50.860;4.648;2022-09-01T07:58:37;2.25;;;0.70;;
9559;SDS011;4818;50.860;4.648;2022-09-01T08:01:10;3.78;;;0.90;;
9559;SDS011;4818;50.860;4.648;2022-09-01T08:03:38;4.30;;;0.65;;
9559;SDS011;4818;50.860;4.648;2022-09-01T08:06:09;6.95;;;1.08;;
9559;SDS011;4818;50.860;4.648;2022-09-01T08:08:36;5.53;;;0.80;;
9559;SDS011;4818;50.860;4.648;2022-09-01T08:11:04;2.25;;;0.57;;
9559;SDS011;4818;50.860;4.648;2022-09-01T08:13:33;2.75;;;0.60;;
9559;SDS011;4818;50.860;4.648;2022-09-01T08:16:02;3.20;;;0.50;;
9559;SDS011;4818;50.860;4.648;2022-09-01T08:18:28;5.22;;;0.80;;
9559;SDS011;4818;50.860;4.648;2022-09-01T08:20:54;1.08;;;0.50;;
9559;SDS011;4818;50.860;4.648;2022-09-01T08:23:22;0.90;;;0.50;;
9559;SDS011;4818;50.860;4.648;2022-09-01T08:25:50;2.42;;;0.88;;
9559;SDS011;4818;50.860;4.648;2022-09-01T08:28:17;2.60;;;0.50;;
9559;SDS011;4818;50.860;4.648;2022-09-01T08:30:44;2.72;;;0.50;;
9559;SDS011;4818;50.860;4.648;2022-09-01T08:33:12;3.17;;;0.60;;
9559;SDS011;4818;50.860;4.648;2022-09-01T08:35:43;1.45;;;0.40;;
9559;SDS011;4818;50.860;4.648;2022-09-01T08:38:10;1.35;;;0.40;;
9559;SDS011;4818;50.860;4.648;2022-09-01T08:40:37;3.13;;;0.40;;
9559;SDS011;4818;50.860;4.648;2022-09-01T08:48:13;3.38;;;0.75;;
9559;SDS011;4818;50.860;4.648;2022-09-01T08:50:40;2.78;;;0.43;;
9559;SDS011;4818;50.860;4.648;2022-09-01T08:53:08;1.10;;;0.60;;
9559;SDS011;4818;50.860;4.648;2022-09-01T08:55:46;2.08;;;0.73;;
9559;SDS011;4818;50.860;4.648;2022-09-01T08:58:14;1.13;;;0.40;;
9559;SDS011;4818;50.860;4.648;2022-09-01T09:00:43;1.25;;;0.60;;
9559;SDS011;4818;50.860;4.648;2022-09-01T09:19:02;2.55;;;0.47;;
9559;SDS011;4818;50.860;4.648;2022-09-01T09:21:37;1.70;;;0.55;;
9559;SDS011;4818;50.860;4.648;2022-09-01T09:26:49;5.93;;;0.50;;
9559;SDS011;4818;50.860;4.648;2022-09-01T09:29:16;0.80;;;0.30;;
9559;SDS011;4818;50.860;4.648;2022-09-01T09:31:42;1.25;;;0.30;;
9559;SDS011;4818;50.860;4.648;2022-09-01T09:36:51;0.50;;;0.25;;
9559;SDS011;4818;50.860;4.648;2022-09-01T09:39:17;0.82;;;0.30;;
9559;SDS011;4818;50.860;4.648;2022-09-01T09:41:59;0.50;;;0.20;;
9559;SDS011;4818;50.860;4.648;2022-09-01T09:44:28;1.52;;;0.20;;
9559;SDS011;4818;50.860;4.648;2022-09-01T09:46:55;2.40;;;0.30;;
9559;SDS011;4818;50.860;4.648;2022-09-01T09:49:29;1.50;;;0.30;;
9559;SDS011;4818;50.860;4.648;2022-09-01T09:52:11;0.73;;;0.40;;
9559;SDS011;4818;50.860;4.648;2022-09-01T09:54:39;0.80;;;0.22;;
9559;SDS011;4818;50.860;4.648;2022-09-01T09:59:59;2.13;;;0.30;;
9559;SDS011;4818;50.860;4.648;2022-09-01T10:04:55;1.23;;;0.20;;
9559;SDS011;4818;50.860;4.648;2022-09-01T10:09:47;2.28;;;0.30;;
9559;SDS011;4818;50.860;4.648;2022-09-01T10:12:13;1.38;;;0.40;;
9559;SDS011;4818;50.860;4.648;2022-09-01T10:14:41;2.28;;;0.30;;
9559;SDS011;4818;50.860;4.648;2022-09-01T10:17:13;1.05;;;0.20;;
9559;SDS011;4818;50.860;4.648;2022-09-01T10:19:42;1.33;;;0.30;;
9559;SDS011;4818;50.860;4.648;2022-09-01T10:22:10;0.47;;;0.20;;
9559;SDS011;4818;50.860;4.648;2022-09-01T10:24:37;0.80;;;0.38;;
9559;SDS011;4818;50.860;4.648;2022-09-01T10:27:14;5.57;;;0.32;;
9559;SDS011;4818;50.860;4.648;2022-09-01T10:29:43;0.50;;;0.28;;
9559;SDS011;4818;50.860;4.648;2022-09-01T10:32:19;0.93;;;0.20;;
9559;SDS011;4818;50.860;4.648;2022-09-01T10:34:45;1.30;;;0.20;;
9559;SDS011;4818;50.860;4.648;2022-09-01T10:37:12;0.70;;;0.20;;
9559;SDS011;4818;50.860;4.648;2022-09-01T10:42:28;0.40;;;0.30;;
9559;SDS011;4818;50.860;4.648;2022-09-01T10:44:55;0.50;;;0.20;;
9559;SDS011;4818;50.860;4.648;2022-09-01T10:47:32;0.60;;;0.30;;
9559;SDS011;4818;50.860;4.648;2022-09-01T10:50:21;1.70;;;0.25;;
9559;SDS011;4818;50.860;4.648;2022-09-01T10:55:24;2.72;;;0.40;;
9559;SDS011;4818;50.860;4.648;2022-09-01T10:57:59;2.25;;;0.20;;
9559;SDS011;4818;50.860;4.648;2022-09-01T11:15:45;1.13;;;0.30;;
9559;SDS011;4818;50.860;4.648;2022-09-01T11:18:14;2.47;;;0.30;;
9559;SDS011;4818;50.860;4.648;2022-09-01T11:20:40;1.20;;;0.28;;
9559;SDS011;4818;50.860;4.648;2022-09-01T11:23:23;1.60;;;0.20;;
9559;SDS011;4818;50.860;4.648;2022-09-01T11:26:43;0.65;;;0.30;;
9559;SDS011;4818;50.860;4.648;2022-09-01T11:28:39;2.40;;;0.20;;
9559;SDS011;4818;50.860;4.648;2022-09-01T11:41:44;0.60;;;0.20;;
9559;SDS011;4818;50.860;4.648;2022-09-01T11:44:13;2.85;;;0.40;;
9559;SDS011;4818;50.860;4.648;2022-09-01T11:46:40;3.97;;;0.30;;
9559;SDS011;4818;50.860;4.648;2022-09-01T11:51:49;2.50;;;0.40;;
9559;SDS011;4818;50.860;4.648;2022-09-01T11:54:15;3.67;;;0.43;;
9559;SDS011;4818;50.860;4.648;2022-09-01T11:56:41;3.13;;;0.43;;
9559;SDS011;4818;50.860;4.648;2022-09-01T11:59:08;2.40;;;0.38;;
9559;SDS011;4818;50.860;4.648;2022-09-01T12:01:35;1.70;;;0.40;;
9559;SDS011;4818;50.860;4.648;2022-09-01T12:06:52;0.85;;;0.50;;
9559;SDS011;4818;50.860;4.648;2022-09-01T12:09:18;0.93;;;0.30;;
9559;SDS011;4818;50.860;4.648;2022-09-01T12:11:45;1.05;;;0.30;;
9559;SDS011;4818;50.860;4.648;2022-09-01T12:14:17;0.63;;;0.38;;
9559;SDS011;4818;50.860;4.648;2022-09-01T12:16:44;0.80;;;0.30;;
9559;SDS011;4818;50.860;4.648;2022-09-01T12:19:24;1.20;;;0.50;;
9559;SDS011;4818;50.860;4.648;2022-09-01T12:21:55;1.58;;;0.40;;
9559;SDS011;4818;50.860;4.648;2022-09-01T12:24:23;1.20;;;0.38;;
9559;SDS011;4818;50.860;4.648;2022-09-01T12:26:50;3.40;;;0.50;;
9559;SDS011;4818;50.860;4.648;2022-09-01T12:29:23;2.47;;;0.40;;
9559;SDS011;4818;50.860;4.648;2022-09-01T12:31:50;1.20;;;0.30;;
9559;SDS011;4818;50.860;4.648;2022-09-01T12:34:24;1.10;;;0.40;;
9559;SDS011;4818;50.860;4.648;2022-09-01T12:39:48;2.15;;;0.30;;
9559;SDS011;4818;50.860;4.648;2022-09-01T12:44:55;1.25;;;0.40;;
9559;SDS011;4818;50.860;4.648;2022-09-01T12:50:05;1.38;;;0.40;;
9559;SDS011;4818;50.860;4.648;2022-09-01T12:52:33;1.00;;;0.40;;
9559;SDS011;4818;50.860;4.648;2022-09-01T12:57:32;3.08;;;0.30;;
9559;SDS011;4818;50.860;4.648;2022-09-01T13:02:35;1.58;;;0.40;;
9559;SDS011;4818;50.860;4.648;2022-09-01T13:07:43;2.97;;;0.60;;
9559;SDS011;4818;50.860;4.648;2022-09-01T13:10:09;2.03;;;0.30;;
9559;SDS011;4818;50.860;4.648;2022-09-01T13:12:42;0.90;;;0.40;;
9559;SDS011;4818;50.860;4.648;2022-09-01T13:15:09;4.68;;;0.38;;
9559;SDS011;4818;50.860;4.648;2022-09-01T13:17:36;0.60;;;0.40;;
9559;SDS011;4818;50.860;4.648;2022-09-01T13:20:05;1.00;;;0.40;;
9559;SDS011;4818;50.860;4.648;2022-09-01T13:22:33;0.90;;;0.38;;
9559;SDS011;4818;50.860;4.648;2022-09-01T13:24:59;2.08;;;0.50;;
9559;SDS011;4818;50.860;4.648;2022-09-01T13:27:26;0.73;;;0.30;;
9559;SDS011;4818;50.860;4.648;2022-09-01T13:29:52;1.02;;;0.40;;
9559;SDS011;4818;50.860;4.648;2022-09-01T13:32:19;0.63;;;0.30;;
9559;SDS011;4818;50.860;4.648;2022-09-01T13:34:45;1.30;;;0.60;;
9559;SDS011;4818;50.860;4.648;2022-09-01T13:37:12;1.00;;;0.30;;
9559;SDS011;4818;50.860;4.648;2022-09-01T13:39:38;1.63;;;0.30;;
9559;SDS011;4818;50.860;4.648;2022-09-01T13:42:05;1.10;;;0.30;;
9559;SDS011;4818;50.860;4.648;2022-09-01T13:44:31;1.48;;;0.40;;
9559;SDS011;4818;50.860;4.648;2022-09-01T13:46:57;0.90;;;0.30;;
9559;SDS011;4818;50.860;4.648;2022-09-01T13:49:24;3.08;;;0.70;;
9559;SDS011;4818;50.860;4.648;2022-09-01T13:51:50;1.95;;;0.30;;
9559;SDS011;4818;50.860;4.648;2022-09-01T13:54:17;2.13;;;0.40;;
9559;SDS011;4818;50.860;4.648;2022-09-01T13:56:43;1.55;;;0.30;;
9559;SDS011;4818;50.860;4.648;2022-09-01T13:59:09;1.33;;;0.60;;
9559;SDS011;4818;50.860;4.648;2022-09-01T14:01:35;0.70;;;0.30;;
9559;SDS011;4818;50.860;4.648;2022-09-01T14:04:01;4.10;;;0.40;;
9559;SDS011;4818;50.860;4.648;2022-09-01T14:06:30;2.45;;;0.30;;
9559;SDS011;4818;50.860;4.648;2022-09-01T14:08:56;1.55;;;0.20;;
9559;SDS011;4818;50.860;4.648;2022-09-01T14:11:23;1.27;;;0.30;;
9559;SDS011;4818;50.860;4.648;2022-09-01T14:13:50;2.45;;;0.30;;
9559;SDS011;4818;50.860;4.648;2022-09-01T14:16:17;0.47;;;0.20;;
9559;SDS011;4818;50.860;4.648;2022-09-01T14:18:43;1.27;;;0.30;;
9559;SDS011;4818;50.860;4.648;2022-09-01T14:21:10;1.05;;;0.30;;
9559;SDS011;4818;50.860;4.648;2022-09-01T14:23:36;2.15;;;0.30;;
9559;SDS011;4818;50.860;4.648;2022-09-01T14:26:06;2.58;;;0.45;;
9559;SDS011;4818;50.860;4.648;2022-09-01T14:28:33;1.60;;;0.30;;
9559;SDS011;4818;50.860;4.648;2022-09-01T14:30:59;1.55;;;0.60;;
9559;SDS011;4818;50.860;4.648;2022-09-01T14:33:29;0.80;;;0.30;;
9559;SDS011;4818;50.860;4.648;2022-09-01T14:35:56;1.55;;;0.30;;
9559;SDS011;4818;50.860;4.648;2022-09-01T14:38:22;1.40;;;0.20;;
9559;SDS011;4818;50.860;4.648;2022-09-01T14:40:48;2.63;;;0.50;;
9559;SDS011;4818;50.860;4.648;2022-09-01T14:43:16;2.67;;;0.30;;
9559;SDS011;4818;50.860;4.648;2022-09-01T14:45:43;1.02;;;0.20;;
9559;SDS011;4818;50.860;4.648;2022-09-01T14:48:13;2.15;;;0.30;;
9559;SDS011;4818;50.860;4.648;2022-09-01T14:50:43;1.15;;;0.30;;
9559;SDS011;4818;50.860;4.648;2022-09-01T14:53:10;1.35;;;0.20;;
9559;SDS011;4818;50.860;4.648;2022-09-01T14:55:37;4.75;;;0.40;;
9559;SDS011;4818;50.860;4.648;2022-09-01T14:58:04;2.15;;;0.30;;
9559;SDS011;4818;50.860;4.648;2022-09-01T15:00:30;1.38;;;0.22;;
9559;SDS011;4818;50.860;4.648;2022-09-01T15:02:59;2.42;;;0.30;;
9559;SDS011;4818;50.860;4.648;2022-09-01T15:05:25;1.15;;;0.40;;
9559;SDS011;4818;50.860;4.648;2022-09-01T15:07:51;0.93;;;0.30;;
9559;SDS011;4818;50.860;4.648;2022-09-01T15:10:19;1.67;;;0.30;;
9559;SDS011;4818;50.860;4.648;2022-09-01T15:12:45;1.00;;;0.20;;
9559;SDS011;4818;50.860;4.648;2022-09-01T15:15:13;1.45;;;0.20;;
9559;SDS011;4818;50.860;4.648;2022-09-01T15:17:40;1.77;;;0.30;;
9559;SDS011;4818;50.860;4.648;2022-09-01T15:20:07;2.05;;;0.20;;
9559;SDS011;4818;50.860;4.648;2022-09-01T15:22:52;0.70;;;0.20;;
9559;SDS011;4818;50.860;4.648;2022-09-01T15:25:20;0.73;;;0.20;;
9559;SDS011;4818;50.860;4.648;2022-09-01T15:27:46;2.85;;;0.22;;
9559;SDS011;4818;50.860;4.648;2022-09-01T15:30:13;0.70;;;0.30;;
9559;SDS011;4818;50.860;4.648;2022-09-01T15:32:44;3.80;;;0.22;;
9559;SDS011;4818;50.860;4.648;2022-09-01T15:35:11;1.08;;;0.40;;
9559;SDS011;4818;50.860;4.648;2022-09-01T15:37:37;5.68;;;0.28;;
9559;SDS011;4818;50.860;4.648;2022-09-01T15:40:03;1.73;;;0.32;;
9559;SDS011;4818;50.860;4.648;2022-09-01T15:42:31;1.52;;;0.32;;
9559;SDS011;4818;50.860;4.648;2022-09-01T15:44:57;3.40;;;0.35;;
9559;SDS011;4818;50.860;4.648;2022-09-01T15:47:24;1.20;;;0.30;;
9559;SDS011;4818;50.860;4.648;2022-09-01T15:49:50;1.17;;;0.30;;
9559;SDS011;4818;50.860;4.648;2022-09-01T15:52:16;4.07;;;0.40;;
9559;SDS011;4818;50.860;4.648;2022-09-01T15:54:45;1.73;;;0.28;;
9559;SDS011;4818;50.860;4.648;2022-09-01T15:57:11;2.92;;;0.30;;
9559;SDS011;4818;50.860;4.648;2022-09-01T15:59:37;4.00;;;0.30;;
9559;SDS011;4818;50.860;4.648;2022-09-01T16:02:07;2.97;;;0.30;;
9559;SDS011;4818;50.860;4.648;2022-09-01T16:04:34;1.50;;;0.30;;
9559;SDS011;4818;50.860;4.648;2022-09-01T16:07:01;0.70;;;0.22;;
9559;SDS011;4818;50.860;4.648;2022-09-01T16:09:27;1.30;;;0.22;;
9559;SDS011;4818;50.860;4.648;2022-09-01T16:11:53;0.88;;;0.20;;
9559;SDS011;4818;50.860;4.648;2022-09-01T16:14:20;1.70;;;0.20;;
9559;SDS011;4818;50.860;4.648;2022-09-01T16:24:37;1.40;;;0.30;;
9559;SDS011;4818;50.860;4.648;2022-09-01T16:27:06;3.40;;;0.20;;
9559;SDS011;4818;50.860;4.648;2022-09-01T16:29:54;2.10;;;0.40;;
9559;SDS011;4818;50.860;4.648;2022-09-01T16:32:19;1.85;;;0.30;;
9559;SDS011;4818;50.860;4.648;2022-09-01T16:34:48;0.82;;;0.20;;
9559;SDS011;4818;50.860;4.648;2022-09-01T16:42:22;0.80;;;0.28;;
9559;SDS011;4818;50.860;4.648;2022-09-01T16:44:52;1.60;;;0.30;;
9559;SDS011;4818;50.860;4.648;2022-09-01T17:00:19;3.92;;;0.45;;
9559;SDS011;4818;50.860;4.648;2022-09-01T17:05:28;3.70;;;0.63;;
9559;SDS011;4818;50.860;4.648;2022-09-01T17:10:32;2.08;;;0.50;;
9559;SDS011;4818;50.860;4.648;2022-09-01T17:13:44;2.58;;;0.40;;
9559;SDS011;4818;50.860;4.648;2022-09-01T17:16:38;0.65;;;0.30;;
9559;SDS011;4818;50.860;4.648;2022-09-01T17:18:48;2.38;;;0.30;;
9559;SDS011;4818;50.860;4.648;2022-09-01T17:21:17;2.08;;;0.20;;
9559;SDS011;4818;50.860;4.648;2022-09-01T17:24:07;2.95;;;0.40;;
9559;SDS011;4818;50.860;4.648;2022-09-01T17:26:36;2.40;;;0.30;;
9559;SDS011;4818;50.860;4.648;2022-09-01T17:29:12;2.15;;;0.50;;